Time;durP1;ratioP1;P1;durP2;ratioP2;P2;SDS_P1;SDS_P2;PMS_P1;PMS_P2;Temp;Humidity;BMP_temperature;BMP_pressure;BME280_temperature;BME280_humidity;BME280_pressure;Samples;Min_cycle;Max_cycle;Signal;HPM_P1;HPM_P2
2023/03/06 00:01:50;;;;;;;;;;;;;;;-140.72;100.00;53170.13;5079138;28;19920;-73
2023/03/06 00:04:15;;;;;;;;;;;;;;;-140.72;100.00;53168.09;5070607;28;20004;-73
2023/03/06 00:06:41;;;;;;;;;;;;;;;-140.72;100.00;53153.88;5083836;28;19955;-73
2023/03/06 00:09:06;;;;;;;;;;;;;;;-140.72;100.00;53157.94;5086362;28;20371;-72
2023/03/06 00:11:31;;;;;;;;;;;;;;;-140.72;100.00;53186.34;5077838;28;19939;-72
2023/03/06 00:13:57;;;;;;;;;;;;;;;-140.72;100.00;53170.13;5093774;28;19916;-72
2023/03/06 00:16:23;;;;;;;;;;;;;;;-140.72;100.00;53162.00;5071195;28;20017;-72
2023/03/06 00:18:48;;;;;;;;;;;;;;;-140.72;100.00;53188.38;5075109;28;19924;-72
2023/03/06 00:21:14;;;;;;;;;;;;;;;-140.72;100.00;53133.59;5068762;28;19920;-72
2023/03/06 00:23:40;;;;;;;;;;;;;;;-140.72;100.00;53155.91;5073416;28;19944;-73
2023/03/06 00:26:06;;;;;;;;;;;;;;;-140.72;100.00;53159.97;5070481;28;20291;-72
2023/03/06 00:28:31;;;;;;;;;;;;;;;-140.72;100.00;53172.16;5071484;28;19924;-72
2023/03/06 00:30:56;;;;;;;;;;;;;;;-140.72;100.00;53174.19;5074248;28;19927;-72
2023/03/06 00:33:22;;;;;;;;;;;;;;;-140.72;100.00;53109.22;5074072;28;19916;-72
2023/03/06 00:35:47;;;;;;;;;;;;;;;-140.72;100.00;53166.06;5080477;28;20333;-72
2023/03/06 00:38:12;;;;;;;;;;;;;;;-140.72;100.00;53172.16;5065884;28;19916;-72
2023/03/06 00:40:37;;;;;;;;;;;;;;;-140.72;100.00;53178.22;5071210;28;19923;-72
2023/03/06 00:43:03;;;;;;;;;;;;;;;-140.72;100.00;53188.38;5071786;28;19985;-72
2023/03/06 00:45:28;;;;;;;;;;;;;;;-140.72;100.00;53204.63;5074639;28;19916;-72
2023/03/06 00:47:53;;;;;;;;;;;;;;;-140.72;100.00;53170.13;5105961;28;20007;-72
2023/03/06 00:50:19;;;;;;;;;;;;;;;-140.72;100.00;53123.44;5070526;28;20026;-72
2023/03/06 00:52:44;;;;;;;;;;;;;;;-140.72;100.00;53151.84;5073855;28;19924;-72
2023/03/06 00:55:09;;;;;;;;;;;;;;;-140.72;100.00;53145.75;5106056;27;19960;-72
2023/03/06 00:57:35;;;;;;;;;;;;;;;-140.72;100.00;53149.81;5068957;28;19927;-72
2023/03/06 01:00:00;;;;;;;;;;;;;;;-140.72;100.00;53184.31;5069841;28;19971;-72
2023/03/06 01:02:27;;;;;;;;;;;;;;;-140.72;100.00;53190.41;5089675;28;20209;-72
2023/03/06 01:04:59;;;;;;;;;;;;;;;-140.72;100.00;53129.53;5068189;28;20416;-72
2023/03/06 01:07:26;;;;;;;;;;;;;;;-140.72;100.00;53206.66;5067783;28;19923;-72
2023/03/06 01:09:57;;;;;;;;;;;;;;;-140.72;100.00;53153.88;5075003;28;19924;-72
2023/03/06 01:12:22;;;;;;;;;;;;;;;-140.72;100.00;53168.09;5061436;28;19917;-72
2023/03/06 01:14:48;;;;;;;;;;;;;;;-140.72;100.00;53164.03;5071675;28;19963;-72
2023/03/06 01:17:14;;;;;;;;;;;;;;;-140.72;100.00;53166.06;5072728;28;19921;-72
2023/03/06 01:19:39;;;;;;;;;;;;;;;-140.72;100.00;53139.69;5061526;28;20416;-72
2023/03/06 01:22:05;;;;;;;;;;;;;;;-140.72;100.00;53149.81;5073778;28;19921;-72
2023/03/06 01:24:30;;;;;;;;;;;;;;;-140.72;100.00;53141.69;5074698;28;20341;-72
2023/03/06 01:26:55;;;;;;;;;;;;;;;-140.72;100.00;53155.91;5083374;28;20371;-72
2023/03/06 01:29:20;;;;;;;;;;;;;;;-140.72;100.00;53151.84;5060130;28;19917;-72
2023/03/06 01:31:46;;;;;;;;;;;;;;;-140.72;100.00;53166.06;5073113;28;20371;-72
2023/03/06 01:34:11;;;;;;;;;;;;;;;-140.72;100.00;53147.78;5066871;28;20385;-72
2023/03/06 01:36:36;;;;;;;;;;;;;;;-140.72;100.00;53166.06;5069930;28;20007;-73
2023/03/06 01:39:02;;;;;;;;;;;;;;;-140.72;100.00;53147.78;5079808;28;19951;-72
2023/03/06 01:41:28;;;;;;;;;;;;;;;-140.72;100.00;53170.13;5076624;28;19923;-72
2023/03/06 01:43:53;;;;;;;;;;;;;;;-140.72;100.00;53162.00;5071110;28;20007;-72
2023/03/06 01:46:27;;;;;;;;;;;;;;;-140.72;100.00;53190.41;5077170;28;19942;-72
2023/03/06 01:48:57;;;;;;;;;;;;;;;-140.72;100.00;53190.41;5067691;28;20003;-72
2023/03/06 01:51:37;;;;;;;;;;;;;;;-140.72;100.00;53224.91;5070974;28;19925;-72
2023/03/06 01:54:04;;;;;;;;;;;;;;;-140.72;100.00;53190.41;5072853;28;19952;-72
2023/03/06 01:56:36;;;;;;;;;;;;;;;-140.72;100.00;53214.78;5075929;28;19988;-72
2023/03/06 01:59:02;;;;;;;;;;;;;;;-140.72;100.00;53186.34;5072575;28;19920;-72
2023/03/06 02:01:28;;;;;;;;;;;;;;;-140.72;100.00;53164.03;5073769;28;19943;-74
2023/03/06 02:03:54;;;;;;;;;;;;;;;-140.72;100.00;53178.22;5093255;28;19921;-73
2023/03/06 02:06:26;;;;;;;;;;;;;;;-140.72;100.00;53210.72;5076375;28;19928;-73
2023/03/06 02:08:51;;;;;;;;;;;;;;;-140.72;100.00;53168.09;5059304;28;19923;-73
2023/03/06 02:11:21;;;;;;;;;;;;;;;-140.72;100.00;53200.56;5070167;28;19921;-73
2023/03/06 02:13:47;;;;;;;;;;;;;;;-140.72;100.00;53170.13;5074680;28;19916;-72
2023/03/06 02:16:13;;;;;;;;;;;;;;;-140.72;100.00;53196.50;5074184;28;19999;-72
2023/03/06 02:18:39;;;;;;;;;;;;;;;-140.72;100.00;53166.06;5075815;28;20005;-71
2023/03/06 02:21:06;;;;;;;;;;;;;;;-140.72;100.00;53182.28;5075524;28;19924;-72
2023/03/06 02:23:37;;;;;;;;;;;;;;;-140.72;100.00;53184.31;5075781;28;19923;-72
2023/03/06 02:26:04;;;;;;;;;;;;;;;-140.72;100.00;53204.63;5073295;28;19924;-72
2023/03/06 02:28:29;;;;;;;;;;;;;;;-140.72;100.00;53196.50;5073968;28;20375;-72
2023/03/06 02:30:55;;;;;;;;;;;;;;;-140.72;100.00;53141.69;5075333;28;19928;-72
2023/03/06 02:33:25;;;;;;;;;;;;;;;-140.72;100.00;53166.06;5072083;28;19920;-72
2023/03/06 02:36:00;;;;;;;;;;;;;;;-140.72;100.00;53157.94;5076222;28;20019;-72
2023/03/06 02:38:28;;;;;;;;;;;;;;;-140.72;100.00;53153.88;5074795;28;19935;-72
2023/03/06 02:40:53;;;;;;;;;;;;;;;-140.72;100.00;53141.69;5108532;28;20349;-72
2023/03/06 02:43:21;;;;;;;;;;;;;;;-140.72;100.00;53182.28;5075656;28;19920;-72
2023/03/06 02:45:48;;;;;;;;;;;;;;;-140.72;100.00;53168.09;5071950;28;19917;-72
2023/03/06 02:48:14;;;;;;;;;;;;;;;-140.72;100.00;53125.47;5076036;28;20023;-72
2023/03/06 02:50:41;;;;;;;;;;;;;;;-140.72;100.00;53164.03;5107792;27;19963;-72
2023/03/06 02:53:06;;;;;;;;;;;;;;;-140.72;100.00;53147.78;5076650;28;19920;-72
2023/03/06 02:55:53;;;;;;;;;;;;;;;-140.72;100.00;53190.41;5085698;28;19924;-72
2023/03/06 02:58:19;;;;;;;;;;;;;;;-140.72;100.00;53182.28;5074011;28;19946;-72
2023/03/06 03:01:06;;;;;;;;;;;;;;;-140.72;100.00;53164.03;5081394;28;19987;-72
2023/03/06 03:03:32;;;;;;;;;;;;;;;-140.72;100.00;53162.00;5072850;28;19923;-72
2023/03/06 03:05:58;;;;;;;;;;;;;;;-140.72;100.00;53174.19;5075799;28;19928;-72
2023/03/06 03:08:23;;;;;;;;;;;;;;;-140.72;100.00;53186.34;5076558;28;19917;-72
2023/03/06 03:10:49;;;;;;;;;;;;;;;-140.72;100.00;53170.13;5075525;28;20398;-72
2023/03/06 03:13:14;;;;;;;;;;;;;;;-140.72;100.00;53174.19;5067215;28;19924;-72
2023/03/06 03:15:40;;;;;;;;;;;;;;;-140.72;100.00;53198.53;5075169;28;20019;-72
2023/03/06 03:18:05;;;;;;;;;;;;;;;-140.72;100.00;53194.47;5080980;28;19923;-72
2023/03/06 03:20:30;;;;;;;;;;;;;;;-140.72;100.00;53180.25;5090820;28;19923;-71
2023/03/06 03:22:56;;;;;;;;;;;;;;;-140.72;100.00;53210.72;5075817;28;19924;-71
2023/03/06 03:25:22;;;;;;;;;;;;;;;-140.72;100.00;53129.53;5075366;28;19954;-71
2023/03/06 03:27:47;;;;;;;;;;;;;;;-140.72;100.00;53190.41;5065012;28;20284;-71
2023/03/06 03:30:13;;;;;;;;;;;;;;;-140.72;100.00;53174.19;5114489;27;19925;-72
2023/03/06 03:32:38;;;;;;;;;;;;;;;-140.72;100.00;53157.94;5066103;28;20007;-72
2023/03/06 03:35:05;;;;;;;;;;;;;;;-140.72;100.00;53188.38;5075267;28;19942;-72
2023/03/06 03:37:30;;;;;;;;;;;;;;;-140.72;100.00;53166.06;5111012;27;20333;-72
2023/03/06 03:39:55;;;;;;;;;;;;;;;-140.72;100.00;53125.47;5075362;28;19923;-71
2023/03/06 03:42:20;;;;;;;;;;;;;;;-140.72;100.00;53131.56;5070669;28;20425;-71
2023/03/06 03:44:46;;;;;;;;;;;;;;;-140.72;100.00;53168.09;5064506;28;20313;-72
2023/03/06 03:47:11;;;;;;;;;;;;;;;-140.72;100.00;53182.28;5075565;28;20294;-72
2023/03/06 03:49:36;;;;;;;;;;;;;;;-140.72;100.00;53135.63;5066235;28;20374;-71
2023/03/06 03:52:01;;;;;;;;;;;;;;;-140.72;100.00;53168.09;5066299;28;19924;-72
2023/03/06 03:54:27;;;;;;;;;;;;;;;-140.72;100.00;53166.06;5076190;28;19924;-72
2023/03/06 03:56:52;;;;;;;;;;;;;;;-140.72;100.00;53168.09;5076041;28;19923;-72
2023/03/06 03:59:18;;;;;;;;;;;;;;;-140.72;100.00;53168.09;5060354;28;19921;-72
2023/03/06 04:01:44;;;;;;;;;;;;;;;-140.72;100.00;53141.69;5062710;28;20158;-72
2023/03/06 04:04:10;;;;;;;;;;;;;;;-140.72;100.00;53149.81;5078292;28;19959;-72
2023/03/06 04:06:35;;;;;;;;;;;;;;;-140.72;100.00;53155.91;5064777;28;19983;-72
2023/03/06 04:09:00;;;;;;;;;;;;;;;-140.72;100.00;53137.66;5072018;28;19942;-72
2023/03/06 04:11:25;;;;;;;;;;;;;;;-140.72;100.00;53162.00;5056342;28;19921;-72
2023/03/06 04:13:51;;;;;;;;;;;;;;;-140.72;100.00;53137.66;5083878;28;19923;-72
2023/03/06 04:16:16;;;;;;;;;;;;;;;-140.72;100.00;53123.44;5073849;28;20007;-72
2023/03/06 04:18:41;;;;;;;;;;;;;;;-140.72;100.00;53188.38;5075066;28;20327;-72
2023/03/06 04:21:06;;;;;;;;;;;;;;;-140.72;100.00;53143.72;5069135;28;20319;-72
2023/03/06 04:23:32;;;;;;;;;;;;;;;-140.72;100.00;53164.03;5065539;28;19964;-71
2023/03/06 04:25:57;;;;;;;;;;;;;;;-140.72;100.00;53125.47;5070796;28;19921;-72
2023/03/06 04:28:22;;;;;;;;;;;;;;;-140.72;100.00;53151.84;5072464;28;19956;-72
2023/03/06 04:30:48;;;;;;;;;;;;;;;-140.72;100.00;53159.97;5085760;28;19928;-72
2023/03/06 04:33:13;;;;;;;;;;;;;;;-140.72;100.00;53133.59;5079806;28;19920;-72
2023/03/06 04:35:38;;;;;;;;;;;;;;;-140.72;100.00;53153.88;5060845;28;19924;-72
2023/03/06 04:38:03;;;;;;;;;;;;;;;-140.72;100.00;53149.81;5071954;28;19916;-72
2023/03/06 04:40:30;;;;;;;;;;;;;;;-140.72;100.00;53149.81;5061708;28;20010;-72
2023/03/06 04:42:56;;;;;;;;;;;;;;;-140.72;100.00;53180.25;5067815;28;19928;-72
2023/03/06 04:45:21;;;;;;;;;;;;;;;-140.72;100.00;53162.00;5074289;28;19916;-72
2023/03/06 04:47:46;;;;;;;;;;;;;;;-140.72;100.00;53117.34;5072902;28;19920;-71
2023/03/06 04:50:12;;;;;;;;;;;;;;;-140.72;100.00;53135.63;5073135;28;19944;-72
2023/03/06 04:52:39;;;;;;;;;;;;;;;-140.72;100.00;53111.25;5061066;28;19958;-72
2023/03/06 04:55:07;;;;;;;;;;;;;;;-140.72;100.00;53147.78;5062909;28;19923;-72
2023/03/06 04:57:37;;;;;;;;;;;;;;;-140.72;100.00;53141.69;5067109;28;19927;-72
2023/03/06 05:00:07;;;;;;;;;;;;;;;-140.72;100.00;53151.84;5068422;28;19916;-72
2023/03/06 05:02:33;;;;;;;;;;;;;;;-140.72;100.00;53137.66;5071871;28;20020;-72
2023/03/06 05:04:58;;;;;;;;;;;;;;;-140.72;100.00;53153.88;5071683;28;19961;-72
2023/03/06 05:07:23;;;;;;;;;;;;;;;-140.72;100.00;53149.81;5073869;28;19917;-71
2023/03/06 05:09:48;;;;;;;;;;;;;;;-140.72;100.00;53180.25;5065186;28;19932;-71
2023/03/06 05:12:13;;;;;;;;;;;;;;;-140.72;100.00;53111.25;5068727;28;19927;-72
2023/03/06 05:14:39;;;;;;;;;;;;;;;-140.72;100.00;53162.00;5082368;28;19920;-72
2023/03/06 05:17:04;;;;;;;;;;;;;;;-140.72;100.00;53174.19;5078280;28;19916;-72
2023/03/06 05:19:29;;;;;;;;;;;;;;;-140.72;100.00;53164.03;5074038;28;19916;-72
2023/03/06 05:21:55;;;;;;;;;;;;;;;-140.72;100.00;53149.81;5069642;28;20375;-74
2023/03/06 05:24:20;;;;;;;;;;;;;;;-140.72;100.00;53147.78;5082646;28;19948;-75
2023/03/06 05:26:45;;;;;;;;;;;;;;;-140.72;100.00;53147.78;5092642;28;20498;-72
2023/03/06 05:29:10;;;;;;;;;;;;;;;-140.72;100.00;53174.19;5066363;28;20286;-72
2023/03/06 05:31:36;;;;;;;;;;;;;;;-140.72;100.00;53176.22;5072751;28;19924;-72
2023/03/06 05:34:01;;;;;;;;;;;;;;;-140.72;100.00;53166.06;5069924;28;19956;-72
2023/03/06 05:36:26;;;;;;;;;;;;;;;-140.72;100.00;53208.69;5074709;28;19921;-72
2023/03/06 05:38:51;;;;;;;;;;;;;;;-140.72;100.00;53174.19;5071187;28;19931;-72
2023/03/06 05:41:16;;;;;;;;;;;;;;;-140.72;100.00;53164.03;5071871;28;19944;-72
2023/03/06 05:43:42;;;;;;;;;;;;;;;-140.72;100.00;53145.75;5064337;28;20312;-72
2023/03/06 05:46:08;;;;;;;;;;;;;;;-140.72;100.00;53182.28;5069561;28;19920;-72
2023/03/06 05:48:34;;;;;;;;;;;;;;;-140.72;100.00;53137.66;5064660;28;19916;-72
2023/03/06 05:51:00;;;;;;;;;;;;;;;-140.72;100.00;53121.41;5068013;28;19952;-72
2023/03/06 05:53:25;;;;;;;;;;;;;;;-140.72;100.00;53139.69;5066911;28;19916;-72
2023/03/06 05:55:57;;;;;;;;;;;;;;;-140.72;100.00;53170.13;5069798;28;19917;-71
2023/03/06 05:58:22;;;;;;;;;;;;;;;-140.72;100.00;53174.19;5064541;28;20016;-71
2023/03/06 06:00:48;;;;;;;;;;;;;;;-140.72;100.00;53170.13;5071155;28;20015;-73
2023/03/06 06:03:15;;;;;;;;;;;;;;;-140.72;100.00;53127.50;5065367;28;19931;-74
2023/03/06 06:05:40;;;;;;;;;;;;;;;-140.72;100.00;53131.56;5064449;28;19917;-73
2023/03/06 06:08:05;;;;;;;;;;;;;;;-140.72;100.00;53153.88;5066187;28;19921;-73
2023/03/06 06:10:31;;;;;;;;;;;;;;;-140.72;100.00;53170.13;5053771;28;19975;-72
2023/03/06 06:12:56;;;;;;;;;;;;;;;-140.72;100.00;53180.25;5053793;28;19923;-72
2023/03/06 06:18:33;;;;;;;;;;;;;;;-140.72;100.00;53159.97;5058244;28;19938;-71
2023/03/06 06:21:03;;;;;;;;;;;;;;;-140.72;100.00;53164.03;5072813;28;19916;-71
2023/03/06 06:23:28;;;;;;;;;;;;;;;-140.72;100.00;53141.69;5064556;28;19917;-71
2023/03/06 06:25:53;;;;;;;;;;;;;;;-140.72;100.00;53170.13;5059188;28;20288;-72
2023/03/06 06:28:18;;;;;;;;;;;;;;;-140.72;100.00;53166.06;5072178;28;20298;-73
2023/03/06 06:31:03;;;;;;;;;;;;;;;-140.72;100.00;53153.88;5073990;28;19920;-73
2023/03/06 06:33:29;;;;;;;;;;;;;;;-140.72;100.00;53149.81;5075578;28;19927;-73
2023/03/06 06:35:55;;;;;;;;;;;;;;;-140.72;100.00;53135.63;5074811;28;19970;-72
2023/03/06 06:38:20;;;;;;;;;;;;;;;-140.72;100.00;53196.50;5074555;28;20374;-72
2023/03/06 06:40:45;;;;;;;;;;;;;;;-140.72;100.00;53166.06;5073501;28;19982;-72
2023/03/06 06:43:29;;;;;;;;;;;;;;;-140.72;100.00;53186.34;5065651;28;19928;-72
2023/03/06 06:45:57;;;;;;;;;;;;;;;-140.72;100.00;53157.94;5062358;28;19955;-73
2023/03/06 06:48:22;;;;;;;;;;;;;;;-140.72;100.00;53162.00;5076195;28;19916;-74
2023/03/06 06:51:11;;;;;;;;;;;;;;;-140.72;100.00;53176.22;5069513;28;20310;-74
2023/03/06 06:53:36;;;;;;;;;;;;;;;-140.72;100.00;53162.00;5102909;28;20323;-74
2023/03/06 06:56:01;;;;;;;;;;;;;;;-140.72;100.00;53210.72;5071723;28;19917;-74
2023/03/06 06:58:27;;;;;;;;;;;;;;;-140.72;100.00;53153.88;5076141;28;19946;-72
2023/03/06 07:00:52;;;;;;;;;;;;;;;-140.72;100.00;53149.81;5071044;28;19928;-72
2023/03/06 07:03:17;;;;;;;;;;;;;;;-140.72;100.00;53145.75;5075668;28;19924;-72
2023/03/06 07:05:42;;;;;;;;;;;;;;;-140.72;100.00;53145.75;5073906;28;19940;-72
2023/03/06 07:08:08;;;;;;;;;;;;;;;-140.72;100.00;53180.25;5065420;28;19939;-72
2023/03/06 07:10:34;;;;;;;;;;;;;;;-140.72;100.00;53157.94;5070030;28;20054;-72
2023/03/06 07:12:59;;;;;;;;;;;;;;;-140.72;100.00;53157.94;5082514;28;19928;-72
2023/03/06 07:15:25;;;;;;;;;;;;;;;-140.72;100.00;53129.53;5056946;28;19917;-72
2023/03/06 07:17:51;;;;;;;;;;;;;;;-140.72;100.00;53159.97;5066792;28;19998;-72
2023/03/06 07:20:17;;;;;;;;;;;;;;;-140.72;100.00;53151.84;5070548;28;19960;-72
2023/03/06 07:22:42;;;;;;;;;;;;;;;-140.72;100.00;53157.94;5073376;28;19920;-71
2023/03/06 07:25:07;;;;;;;;;;;;;;;-140.72;100.00;53176.22;5106768;28;19917;-72
2023/03/06 07:27:32;;;;;;;;;;;;;;;-140.72;100.00;53180.25;5074813;28;19947;-72
2023/03/06 07:29:58;;;;;;;;;;;;;;;-140.72;100.00;53133.59;5074166;28;19923;-72
2023/03/06 07:32:23;;;;;;;;;;;;;;;-140.72;100.00;53129.53;5074220;28;20015;-72
2023/03/06 07:34:48;;;;;;;;;;;;;;;-140.72;100.00;53117.34;5073881;28;19920;-72
2023/03/06 07:37:13;;;;;;;;;;;;;;;-140.72;100.00;53101.13;5062847;28;19917;-72
2023/03/06 07:39:39;;;;;;;;;;;;;;;-140.72;100.00;53137.66;5073847;28;20433;-72
2023/03/06 07:42:06;;;;;;;;;;;;;;;-140.72;100.00;53176.22;5061551;28;19920;-72
2023/03/06 07:44:34;;;;;;;;;;;;;;;-140.72;100.00;53115.31;5073242;28;20267;-72
2023/03/06 07:46:59;;;;;;;;;;;;;;;-140.72;100.00;53139.69;5075076;28;19920;-72
2023/03/06 07:49:25;;;;;;;;;;;;;;;-140.72;100.00;53129.53;5074403;28;19929;-72
2023/03/06 07:51:50;;;;;;;;;;;;;;;-140.72;100.00;53151.84;5075005;28;19959;-72
2023/03/06 07:54:15;;;;;;;;;;;;;;;-140.72;100.00;53133.59;5076797;28;19925;-72
2023/03/06 07:56:40;;;;;;;;;;;;;;;-140.72;100.00;53099.09;5083835;28;19916;-72
2023/03/06 07:59:05;;;;;;;;;;;;;;;-140.72;100.00;53113.28;5075823;28;19970;-73
2023/03/06 08:01:31;;;;;;;;;;;;;;;-140.72;100.00;53097.06;5077519;28;19916;-72
2023/03/06 08:03:56;;;;;;;;;;;;;;;-140.72;100.00;53109.22;5074584;28;19916;-72
2023/03/06 08:06:23;;;;;;;;;;;;;;;-140.72;100.00;53125.47;5107956;28;19966;-72
2023/03/06 08:08:50;;;;;;;;;;;;;;;-140.72;100.00;53078.78;5075065;28;19916;-72
2023/03/06 08:11:16;;;;;;;;;;;;;;;-140.72;100.00;53078.78;5073108;28;20394;-72
2023/03/06 08:13:41;;;;;;;;;;;;;;;-140.72;100.00;53088.94;5067768;28;19955;-73
2023/03/06 08:16:07;;;;;;;;;;;;;;;-140.72;100.00;53105.19;5074529;28;19917;-72
2023/03/06 08:18:32;;;;;;;;;;;;;;;-140.72;100.00;53105.19;5073336;28;19927;-73
2023/03/06 08:21:09;;;;;;;;;;;;;;;-140.72;100.00;53109.22;5070367;28;19924;-72
2023/03/06 08:23:34;;;;;;;;;;;;;;;-140.72;100.00;53111.25;5058502;28;19917;-73
2023/03/06 08:26:01;;;;;;;;;;;;;;;-140.72;100.00;53099.09;5074921;28;20344;-73
2023/03/06 08:28:27;;;;;;;;;;;;;;;-140.72;100.00;53082.84;5093508;28;19918;-72
2023/03/06 08:30:52;;;;;;;;;;;;;;;-140.72;100.00;53105.19;5074951;28;19917;-72
2023/03/06 08:33:18;;;;;;;;;;;;;;;-140.72;100.00;53062.56;5068478;28;20335;-71
2023/03/06 08:35:43;;;;;;;;;;;;;;;-140.72;100.00;53074.72;5061447;28;19917;-70
2023/03/06 08:38:08;;;;;;;;;;;;;;;-140.72;100.00;53101.13;5074299;28;20011;-73
2023/03/06 08:40:34;;;;;;;;;;;;;;;-140.72;100.00;53109.22;5089865;28;20373;-72
2023/03/06 08:46:04;;;;;;;;;;;;;;;-140.72;100.00;53103.16;5076218;28;19919;-71
2023/03/06 08:48:37;;;;;;;;;;;;;;;-140.72;100.00;53113.28;5068608;28;19927;-72
2023/03/06 08:51:03;;;;;;;;;;;;;;;-140.72;100.00;53117.34;5068097;28;20302;-72
2023/03/06 08:53:28;;;;;;;;;;;;;;;-140.72;100.00;53103.16;5072823;28;19927;-72
2023/03/06 08:55:53;;;;;;;;;;;;;;;-140.72;100.00;53066.63;5074105;28;19951;-72
2023/03/06 08:58:22;;;;;;;;;;;;;;;-140.72;100.00;53036.16;5066947;28;20268;-72
2023/03/06 09:00:50;;;;;;;;;;;;;;;-140.72;100.00;53048.34;5092536;28;19920;-72
2023/03/06 09:03:15;;;;;;;;;;;;;;;-140.72;100.00;53028.06;5066438;28;19917;-72
2023/03/06 09:06:06;;;;;;;;;;;;;;;-140.72;100.00;53032.13;5073029;28;21250;-72
2023/03/06 09:08:31;;;;;;;;;;;;;;;-140.72;100.00;53056.47;5066087;28;19917;-72
2023/03/06 09:14:00;;;;;;;;;;;;;;;-140.72;100.00;53070.69;5069668;28;19923;-72
2023/03/06 09:19:28;;;;;;;;;;;;;;;-140.72;100.00;53060.53;5061941;28;19924;-71
2023/03/06 09:22:27;;;;;;;;;;;;;;;-140.72;100.00;53019.94;5056642;28;20363;-72
2023/03/06 09:24:53;;;;;;;;;;;;;;;-140.72;100.00;53086.91;5062228;28;19917;-72
2023/03/06 09:27:18;;;;;;;;;;;;;;;-140.72;100.00;53054.44;5070227;28;19924;-72
2023/03/06 09:29:43;;;;;;;;;;;;;;;-140.72;100.00;53070.69;5065523;28;19916;-72
2023/03/06 09:32:08;;;;;;;;;;;;;;;-140.72;100.00;53113.28;5073157;28;19934;-72
2023/03/06 09:34:34;;;;;;;;;;;;;;;-140.72;100.00;53084.88;5063839;28;19917;-72
2023/03/06 09:37:00;;;;;;;;;;;;;;;-140.72;100.00;53076.75;5058495;28;20450;-72
2023/03/06 09:39:28;;;;;;;;;;;;;;;-140.72;100.00;53068.66;5067076;28;19974;-72
2023/03/06 09:41:54;;;;;;;;;;;;;;;-140.72;100.00;53038.19;5069213;28;19920;-72
2023/03/06 09:44:24;;;;;;;;;;;;;;;-140.72;100.00;53064.59;5056073;28;19927;-72
2023/03/06 09:47:02;;;;;;;;;;;;;;;-140.72;100.00;53097.06;5099886;28;19938;-72
2023/03/06 09:49:39;;;;;;;;;;;;;;;-140.72;100.00;53070.69;5064919;28;20012;-72
2023/03/06 09:52:23;;;;;;;;;;;;;;;-140.72;100.00;53066.63;5060296;28;19917;-72
2023/03/06 09:54:57;;;;;;;;;;;;;;;-140.72;92.16;53015.88;5067630;28;19917;-72
2023/03/06 09:57:41;;;;;;;;;;;;;;;-140.72;88.93;53113.28;5060684;28;20304;-72
2023/03/06 10:00:18;;;;;;;;;;;;;;;-140.72;87.79;53054.44;5066674;28;19959;-71
2023/03/06 10:02:59;;;;;;;;;;;;;;;-140.72;91.41;53064.59;5074400;28;19917;-72
2023/03/06 10:05:24;;;;;;;;;;;;;;;-140.72;94.55;53097.06;5065565;28;20264;-72
2023/03/06 10:07:52;;;;;;;;;;;;;;;-140.72;83.43;53084.88;5072713;28;20018;-72
2023/03/06 10:10:23;;;;;;;;;;;;;;;-140.72;85.23;53064.59;5059533;28;19916;-72
2023/03/06 10:12:57;;;;;;;;;;;;;;;-140.72;96.37;53076.75;5074573;28;19939;-72
2023/03/06 10:15:27;;;;;;;;;;;;;;;-140.72;100.00;53056.47;5060697;28;20295;-72
2023/03/06 10:17:54;;;;;;;;;;;;;;;-140.72;100.00;53105.19;5047692;28;19923;-72
2023/03/06 10:20:22;;;;;;;;;;;;;;;-140.72;100.00;53036.16;5064295;28;20271;-72
2023/03/06 10:23:06;;;;;;;;;;;;;;;-140.72;100.00;53078.78;5071372;28;19982;-72
2023/03/06 10:25:46;;;;;;;;;;;;;;;-140.72;100.00;53064.59;5065178;28;19916;-73
2023/03/06 10:28:14;;;;;;;;;;;;;;;-140.72;100.00;53074.72;5075967;28;19974;-72
2023/03/06 10:30:51;;;;;;;;;;;;;;;-140.72;100.00;53050.38;5071552;28;20011;-72
2023/03/06 10:33:21;;;;;;;;;;;;;;;-140.72;100.00;53105.19;5076977;28;19917;-72
2023/03/06 10:35:48;;;;;;;;;;;;;;;-140.72;100.00;53032.13;5068709;28;19931;-72
2023/03/06 10:38:21;;;;;;;;;;;;;;;-140.72;100.00;53024.00;5070898;28;19920;-72
2023/03/06 10:41:04;;;;;;;;;;;;;;;-140.72;100.00;53076.75;5063564;28;19924;-72
2023/03/06 10:43:29;;;;;;;;;;;;;;;-140.72;100.00;53044.28;5068473;28;19921;-72
2023/03/06 10:45:55;;;;;;;;;;;;;;;-140.72;100.00;53093.00;5073887;28;20398;-72
2023/03/06 10:48:22;;;;;;;;;;;;;;;-140.72;100.00;53046.31;5076661;28;19916;-72
2023/03/06 10:50:48;;;;;;;;;;;;;;;-140.72;100.00;53032.13;5071089;28;19927;-72
2023/03/06 10:53:21;;;;;;;;;;;;;;;-140.72;100.00;52983.41;5072092;28;19917;-72
2023/03/06 10:55:54;;;;;;;;;;;;;;;-140.72;100.00;53052.41;5076499;28;19924;-72
2023/03/06 10:58:24;;;;;;;;;;;;;;;-140.72;96.11;53028.06;5076107;28;19924;-73
2023/03/06 11:01:01;;;;;;;;;;;;;;;-140.72;56.26;53001.66;5077952;28;19982;-72
2023/03/06 11:03:27;;;;;;;;;;;;;;;-140.72;37.18;52987.47;5089989;28;19939;-72
2023/03/06 11:05:59;;;;;;;;;;;;;;;-140.72;19.58;52963.13;5076524;28;19939;-72
2023/03/06 11:08:24;;;;;;;;;;;;;;;-140.72;0.00;52971.22;5082134;28;19920;-72
2023/03/06 11:11:01;;;;;;;;;;;;;;;-140.72;0.00;52975.28;5074274;28;19916;-72
2023/03/06 11:13:28;;;;;;;;;;;;;;;-140.72;0.00;52987.47;5076578;28;19916;-72
2023/03/06 11:15:59;;;;;;;;;;;;;;;-140.72;0.00;52999.66;5068300;28;19943;-72
2023/03/06 11:18:27;;;;;;;;;;;;;;;-140.72;0.00;53001.66;5067598;28;19916;-72
2023/03/06 11:20:53;;;;;;;;;;;;;;;-140.72;0.00;52948.91;5071276;28;19923;-72
2023/03/06 11:23:33;;;;;;;;;;;;;;;-140.72;0.00;52973.25;5047773;28;19917;-72
2023/03/06 11:26:02;;;;;;;;;;;;;;;-140.72;0.00;52969.19;5056139;28;20418;-72
2023/03/06 11:28:36;;;;;;;;;;;;;;;-140.72;0.00;52979.34;5069284;28;19962;-72
2023/03/06 11:31:30;;;;;;;;;;;;;;;-140.72;0.00;52975.28;5071300;28;19920;-72
2023/03/06 11:34:01;;;;;;;;;;;;;;;-140.72;0.00;52950.94;5042507;28;19916;-71
2023/03/06 11:36:36;;;;;;;;;;;;;;;-140.72;0.00;52940.78;5075625;28;20287;-72
2023/03/06 11:39:03;;;;;;;;;;;;;;;-140.72;0.00;52981.38;5065122;28;19923;-72
2023/03/06 11:41:47;;;;;;;;;;;;;;;-140.72;0.00;52948.91;5070204;28;19917;-72
2023/03/06 11:44:16;;;;;;;;;;;;;;;-140.72;0.00;52979.34;5084538;28;19956;-72
2023/03/06 11:47:20;;;;;;;;;;;;;;;-140.72;0.00;52977.31;5067838;28;19924;-72
2023/03/06 11:49:50;;;;;;;;;;;;;;;-140.72;0.00;52959.06;5009705;28;19921;-72
2023/03/06 11:52:19;;;;;;;;;;;;;;;-140.72;0.00;52942.81;5008712;28;20008;-72
2023/03/06 11:54:47;;;;;;;;;;;;;;;-140.72;0.00;52995.59;5041126;28;20011;-71
2023/03/06 11:57:34;;;;;;;;;;;;;;;-140.72;0.00;52983.41;5067143;28;19924;-72
2023/03/06 11:59:59;;;;;;;;;;;;;;;-140.72;0.00;53003.69;5067993;28;20063;-72
2023/03/06 12:02:42;;;;;;;;;;;;;;;-140.72;0.00;52952.97;5071275;28;20011;-72
2023/03/06 12:05:08;;;;;;;;;;;;;;;-140.72;0.00;52957.03;5071611;28;19932;-72
2023/03/06 12:07:34;;;;;;;;;;;;;;;-140.72;0.00;52979.34;5069054;28;19920;-72
2023/03/06 12:09:59;;;;;;;;;;;;;;;-140.72;0.00;52959.06;5072406;28;19920;-72
2023/03/06 12:12:31;;;;;;;;;;;;;;;-140.72;0.00;52934.69;5107128;28;20062;-72
2023/03/06 12:15:32;;;;;;;;;;;;;;;-140.72;0.00;52910.34;5062096;28;19916;-72
2023/03/06 12:18:02;;;;;;;;;;;;;;;-140.72;0.00;52908.31;5025071;28;19921;-72
2023/03/06 12:20:30;;;;;;;;;;;;;;;-140.72;0.00;52904.25;5063349;28;20405;-72
2023/03/06 12:23:01;;;;;;;;;;;;;;;-140.72;0.00;52900.19;5070091;28;19921;-72
2023/03/06 12:25:29;;;;;;;;;;;;;;;-140.72;0.00;52928.63;5058461;28;19921;-72
2023/03/06 12:28:08;;;;;;;;;;;;;;;-140.72;0.00;52924.56;5061963;28;20366;-72
2023/03/06 12:30:42;;;;;;;;;;;;;;;-140.72;0.00;52932.66;5072771;28;19917;-72
2023/03/06 12:33:28;;;;;;;;;;;;;;;-140.72;0.00;52963.13;5087485;28;20027;-72
2023/03/06 12:35:53;;;;;;;;;;;;;;;-140.72;0.00;52942.81;5059182;28;19938;-72
2023/03/06 12:38:28;;;;;;;;;;;;;;;-140.72;0.00;52912.38;5072212;28;19991;-72